createdAt,value
2022-12-18T00:00:30.321Z,4.63
2022-12-18T00:02:59.146Z,3.85
2022-12-18T00:05:27.945Z,4.60
2022-12-18T00:07:56.682Z,4.65
2022-12-18T00:10:25.313Z,4.85
2022-12-18T00:12:55.463Z,5.03
2022-12-18T00:15:24.159Z,4.57
2022-12-18T00:17:53.076Z,4.75
2022-12-18T00:20:26.582Z,4.15
2022-12-18T00:22:55.478Z,4.22
2022-12-18T00:25:25.463Z,4.40
2022-12-18T00:27:55.711Z,4.60
2022-12-18T00:30:24.725Z,4.75
2022-12-18T00:32:53.472Z,4.50
2022-12-18T00:35:22.194Z,4.40
2022-12-18T00:37:51.229Z,4.68
2022-12-18T00:40:20.024Z,5.00
2022-12-18T00:42:56.888Z,4.70
2022-12-18T00:45:28.410Z,4.70
2022-12-18T00:47:59.869Z,4.25
2022-12-18T00:50:29.032Z,4.35
2022-12-18T00:52:58.378Z,4.10
2022-12-18T00:55:27.017Z,4.60
2022-12-18T00:57:56.243Z,5.00
2022-12-18T01:00:28.869Z,5.25
2022-12-18T01:02:57.645Z,3.28
2022-12-18T01:05:26.443Z,4.70
2022-12-18T01:07:55.165Z,4.93
2022-12-18T01:10:23.858Z,4.32
2022-12-18T01:12:52.829Z,3.88
2022-12-18T01:15:22.533Z,4.30
2022-12-18T01:17:55.402Z,3.97
2022-12-18T01:20:24.393Z,3.92
2022-12-18T01:22:53.099Z,4.18
2022-12-18T01:25:21.787Z,4.68
2022-12-18T01:27:50.424Z,4.20
2022-12-18T01:30:19.174Z,4.65
2022-12-18T01:32:49.186Z,4.72
2022-12-18T01:35:19.596Z,4.28
2022-12-18T01:37:48.289Z,3.75
2022-12-18T01:40:17.244Z,4.40
2022-12-18T01:42:46.058Z,4.60
2022-12-18T01:45:27.998Z,4.35
2022-12-18T01:47:59.174Z,4.63
2022-12-18T01:50:35.033Z,4.90
2022-12-18T01:53:09.221Z,3.72
2022-12-18T01:55:42.998Z,3.77
2022-12-18T01:58:13.211Z,4.63
2022-12-18T02:00:42.156Z,4.45
2022-12-18T02:03:11.213Z,3.97
2022-12-18T02:05:46.667Z,3.60
2022-12-18T02:08:22.535Z,4.03
2022-12-18T02:10:59.288Z,4.30
2022-12-18T02:13:37.594Z,4.25
2022-12-18T02:16:15.186Z,5.13
2022-12-18T02:18:47.553Z,4.03
2022-12-18T02:21:30.848Z,4.07
2022-12-18T02:24:14.237Z,3.53
2022-12-18T02:26:50.061Z,4.70
2022-12-18T02:29:27.464Z,4.20
2022-12-18T02:31:59.521Z,4.22
2022-12-18T02:34:33.611Z,4.38
2022-12-18T02:37:06.268Z,4.55
2022-12-18T02:39:38.357Z,4.35
2022-12-18T02:42:09.206Z,4.97
2022-12-18T02:44:43.974Z,3.83
2022-12-18T02:47:17.653Z,4.85
2022-12-18T02:49:55.666Z,3.95
2022-12-18T02:52:33.907Z,4.40
2022-12-18T02:55:14.711Z,3.72
2022-12-18T02:57:52.274Z,4.78
2022-12-18T03:00:24.191Z,5.45
2022-12-18T03:03:00.059Z,4.18
2022-12-18T03:05:36.258Z,4.68
2022-12-18T03:08:10.073Z,4.30
2022-12-18T03:10:45.287Z,4.07
2022-12-18T03:13:20.539Z,5.10
2022-12-18T03:15:53.659Z,4.47
2022-12-18T03:18:26.352Z,4.13
2022-12-18T03:20:58.705Z,4.43
2022-12-18T03:23:31.922Z,5.80
2022-12-18T03:26:09.341Z,5.38
2022-12-18T03:28:44.451Z,4.53
2022-12-18T03:31:15.477Z,3.80
2022-12-18T03:33:48.887Z,5.28
2022-12-18T03:36:17.927Z,4.43
2022-12-18T03:38:46.717Z,5.32
2022-12-18T03:41:22.030Z,4.72
2022-12-18T03:43:59.775Z,4.18
2022-12-18T03:46:36.243Z,4.43
2022-12-18T03:49:12.453Z,5.17
2022-12-18T03:51:46.622Z,4.57
2022-12-18T03:54:17.215Z,5.40
2022-12-18T03:56:50.638Z,4.75
2022-12-18T03:59:23.001Z,4.05
2022-12-18T04:01:57.076Z,3.90
2022-12-18T04:04:27.544Z,4.28
2022-12-18T04:06:57.818Z,3.72
2022-12-18T04:09:26.715Z,3.72
2022-12-18T04:11:55.510Z,3.83
2022-12-18T04:14:25.618Z,4.43
2022-12-18T04:16:56.188Z,4.18
2022-12-18T04:19:24.895Z,3.63
2022-12-18T04:21:53.974Z,3.72
2022-12-18T04:24:22.668Z,4.03
2022-12-18T04:26:51.480Z,3.42
2022-12-18T04:29:20.284Z,3.25
2022-12-18T04:31:50.585Z,3.42
2022-12-18T04:34:19.406Z,3.65
2022-12-18T04:36:48.159Z,3.75
2022-12-18T04:39:17.266Z,4.47
2022-12-18T04:41:45.982Z,3.97
2022-12-18T04:44:14.699Z,3.47
2022-12-18T04:46:43.613Z,3.83
2022-12-18T04:49:13.785Z,3.40
2022-12-18T04:51:42.891Z,4.97
2022-12-18T04:54:12.581Z,3.83
2022-12-18T04:56:41.996Z,4.03
2022-12-18T04:59:11.122Z,4.20
2022-12-18T05:01:40.249Z,3.35
2022-12-18T05:04:09.170Z,3.65
2022-12-18T05:06:39.522Z,4.25
2022-12-18T05:09:08.979Z,4.22
2022-12-18T05:11:38.379Z,3.75
2022-12-18T05:14:07.091Z,3.60
2022-12-18T05:16:35.866Z,3.78
2022-12-18T05:19:04.464Z,4.22
2022-12-18T05:21:36.298Z,3.42
2022-12-18T05:24:08.404Z,3.75
2022-12-18T05:26:37.140Z,3.78
2022-12-18T05:29:06.079Z,4.13
2022-12-18T05:31:39.435Z,3.63
2022-12-18T05:34:08.885Z,3.55
2022-12-18T05:36:37.741Z,3.83
2022-12-18T05:39:08.303Z,3.80
2022-12-18T05:41:37.305Z,3.75
2022-12-18T05:44:06.487Z,3.83
2022-12-18T05:46:35.262Z,4.18
2022-12-18T05:49:04.501Z,3.93
2022-12-18T05:51:33.139Z,3.95
2022-12-18T05:54:02.030Z,3.88
2022-12-18T05:56:32.213Z,3.80
2022-12-18T05:59:00.990Z,4.15
2022-12-18T06:01:30.025Z,3.35
2022-12-18T06:04:00.137Z,4.00
2022-12-18T06:06:31.089Z,3.72
2022-12-18T06:09:02.348Z,3.50
2022-12-18T06:11:34.783Z,3.83
2022-12-18T06:14:04.241Z,4.10
2022-12-18T06:16:33.977Z,3.90
2022-12-18T06:19:04.575Z,3.95
2022-12-18T06:21:33.941Z,4.00
2022-12-18T06:24:03.537Z,3.75
2022-12-18T06:26:33.861Z,3.47
2022-12-18T06:29:02.554Z,3.20
2022-12-18T06:31:31.373Z,3.80
2022-12-18T06:34:00.816Z,3.95
2022-12-18T06:36:30.222Z,3.67
2022-12-18T06:38:59.756Z,4.13
2022-12-18T06:41:28.505Z,3.80
2022-12-18T06:44:00.227Z,4.00
2022-12-18T06:46:29.087Z,4.07
2022-12-18T06:48:57.781Z,4.30
2022-12-18T06:51:26.989Z,3.70
2022-12-18T06:53:55.761Z,3.75
2022-12-18T06:56:24.716Z,3.80
2022-12-18T06:58:53.685Z,3.30
2022-12-18T07:01:24.343Z,4.28
2022-12-18T07:03:55.768Z,3.65
2022-12-18T07:06:26.440Z,4.40
2022-12-18T07:08:58.897Z,4.15
2022-12-18T07:11:27.620Z,4.10
2022-12-18T07:13:56.592Z,3.75
2022-12-18T07:16:27.244Z,4.00
2022-12-18T07:18:57.832Z,4.15
2022-12-18T07:21:27.053Z,4.00
2022-12-18T07:23:56.097Z,4.43
2022-12-18T07:26:25.417Z,3.25
2022-12-18T07:28:58.822Z,3.88
2022-12-18T07:31:30.061Z,4.22
2022-12-18T07:33:59.560Z,4.07
2022-12-18T07:36:28.551Z,3.78
2022-12-18T07:38:57.964Z,4.20
2022-12-18T07:41:27.022Z,4.53
2022-12-18T07:43:56.415Z,4.38
2022-12-18T07:46:25.876Z,5.13
2022-12-18T07:48:56.193Z,3.43
2022-12-18T07:51:25.297Z,3.85
2022-12-18T07:53:54.822Z,4.90
2022-12-18T07:56:28.651Z,5.18
2022-12-18T07:58:59.173Z,4.10
2022-12-18T08:01:29.031Z,5.25
2022-12-18T08:04:00.163Z,4.63
2022-12-18T08:06:29.559Z,5.82
2022-12-18T08:08:59.116Z,4.95
2022-12-18T08:11:29.426Z,4.57
2022-12-18T08:13:59.924Z,4.47
2022-12-18T08:16:31.061Z,4.13
2022-12-18T08:19:01.672Z,5.10
2022-12-18T08:21:34.673Z,4.60
2022-12-18T08:24:03.792Z,5.40
2022-12-18T08:26:33.998Z,5.50
2022-12-18T08:29:03.414Z,4.80
2022-12-18T08:31:34.293Z,4.73
2022-12-18T08:34:07.292Z,4.53
2022-12-18T08:36:36.304Z,5.72
2022-12-18T08:39:05.369Z,5.03
2022-12-18T08:41:34.524Z,5.13
2022-12-18T08:44:20.861Z,4.93
2022-12-18T08:46:49.476Z,5.60
2022-12-18T08:49:19.876Z,5.38
2022-12-18T08:51:48.753Z,5.85
2022-12-18T08:54:17.847Z,5.78
2022-12-18T08:56:46.624Z,4.03
2022-12-18T08:59:19.524Z,6.23
2022-12-18T09:01:50.394Z,5.70
2022-12-18T09:04:20.712Z,5.90
2022-12-18T09:06:49.922Z,4.50
2022-12-18T09:09:18.905Z,5.43
2022-12-18T09:11:47.920Z,5.25
2022-12-18T09:14:16.916Z,5.60
2022-12-18T09:16:45.998Z,5.25
2022-12-18T09:19:15.200Z,5.07
2022-12-18T09:21:48.241Z,5.68
2022-12-18T09:24:18.440Z,5.45
2022-12-18T09:26:47.806Z,4.90
2022-12-18T09:29:18.743Z,5.47
2022-12-18T09:31:48.028Z,5.35
2022-12-18T09:34:19.891Z,5.88
2022-12-18T09:36:50.253Z,5.07
2022-12-18T09:39:19.613Z,6.07
2022-12-18T09:41:56.173Z,5.88
2022-12-18T09:44:29.440Z,5.63
2022-12-18T09:47:07.203Z,5.10
2022-12-18T09:49:42.090Z,5.37
2022-12-18T09:52:21.143Z,4.47
2022-12-18T09:54:54.147Z,5.85
2022-12-18T09:57:26.894Z,6.10
2022-12-18T10:00:01.138Z,5.82
2022-12-18T10:02:36.605Z,5.03
2022-12-18T10:05:10.007Z,4.80
2022-12-18T10:07:52.391Z,5.30
2022-12-18T10:10:39.294Z,6.40
2022-12-18T10:13:21.417Z,5.10
2022-12-18T10:16:10.825Z,5.32
2022-12-18T10:19:00.637Z,4.72
2022-12-18T10:21:36.165Z,5.72
2022-12-18T10:24:17.755Z,5.43
2022-12-18T10:26:47.550Z,5.22
2022-12-18T10:29:18.524Z,5.78
2022-12-18T10:31:47.456Z,5.80
2022-12-18T10:34:16.797Z,4.65
2022-12-18T10:36:45.805Z,5.35
2022-12-18T10:39:21.378Z,5.88
2022-12-18T10:41:51.586Z,5.55
2022-12-18T10:44:21.657Z,3.58
2022-12-18T10:46:54.048Z,5.43
2022-12-18T10:49:26.553Z,4.93
2022-12-18T10:52:09.891Z,4.73
2022-12-18T10:54:41.276Z,5.70
2022-12-18T10:57:35.769Z,7.63
2022-12-18T11:00:25.933Z,8.50
2022-12-18T11:02:55.028Z,6.40
2022-12-18T11:05:30.050Z,5.13
2022-12-18T11:08:00.876Z,4.57
2022-12-18T11:10:35.320Z,5.50
2022-12-18T11:13:19.864Z,5.70
2022-12-18T11:15:50.196Z,5.32
2022-12-18T11:18:27.335Z,5.63
2022-12-18T11:20:59.132Z,5.30
2022-12-18T11:23:29.160Z,5.30
2022-12-18T11:26:07.352Z,4.97
2022-12-18T11:28:43.569Z,5.25
2022-12-18T11:31:33.883Z,5.68
2022-12-18T11:37:00.848Z,4.97
2022-12-18T11:39:39.629Z,4.70
2022-12-18T11:42:21.439Z,5.00
2022-12-18T11:44:53.367Z,5.10
2022-12-18T11:47:29.702Z,5.88
2022-12-18T11:50:02.727Z,5.15
2022-12-18T11:52:39.008Z,4.57
2022-12-18T11:55:16.299Z,7.22
2022-12-18T11:57:57.583Z,4.70
2022-12-18T12:00:27.108Z,5.72
2022-12-18T12:03:29.866Z,5.93
2022-12-18T12:06:16.018Z,5.93
2022-12-18T12:09:04.666Z,5.18
2022-12-18T12:11:42.590Z,5.35
2022-12-18T12:14:28.871Z,6.00
2022-12-18T12:17:05.270Z,5.10
2022-12-18T12:19:45.942Z,5.70
2022-12-18T12:22:26.225Z,5.90
2022-12-18T12:25:07.765Z,5.18
2022-12-18T12:27:47.353Z,5.85
2022-12-18T12:30:23.624Z,5.38
2022-12-18T12:33:12.539Z,5.97
2022-12-18T12:35:53.462Z,5.53
2022-12-18T12:38:27.241Z,5.90
2022-12-18T12:41:03.532Z,5.20
2022-12-18T12:43:43.443Z,6.03
2022-12-18T12:46:23.894Z,5.50
2022-12-18T12:48:57.713Z,6.38
2022-12-18T12:51:30.563Z,6.38
2022-12-18T12:54:02.355Z,6.47
2022-12-18T12:56:51.324Z,6.93
2022-12-18T12:59:33.419Z,5.95
2022-12-18T13:02:13.621Z,5.93
2022-12-18T13:04:49.765Z,6.05
2022-12-18T13:07:27.089Z,6.07
2022-12-18T13:10:26.941Z,5.80
2022-12-18T13:13:00.851Z,6.35
2022-12-18T13:15:43.586Z,6.65
2022-12-18T13:18:33.054Z,6.15
2022-12-18T13:21:15.315Z,6.37
2022-12-18T13:23:48.564Z,5.43
2022-12-18T13:26:35.681Z,5.95
2022-12-18T13:29:07.303Z,5.13
2022-12-18T13:32:02.147Z,5.47
2022-12-18T13:34:34.049Z,6.40
2022-12-18T13:37:42.404Z,7.93
2022-12-18T13:41:00.248Z,7.00
2022-12-18T13:43:33.705Z,5.50
2022-12-18T13:46:07.034Z,5.70
2022-12-18T13:48:38.901Z,6.57
2022-12-18T13:51:15.064Z,6.75
2022-12-18T13:53:52.058Z,8.95
2022-12-18T13:56:24.325Z,6.87
2022-12-18T13:59:15.178Z,7.13
2022-12-18T14:01:48.170Z,6.70
2022-12-18T14:04:28.097Z,7.27
2022-12-18T14:07:07.032Z,6.03
2022-12-18T14:09:40.488Z,6.20
2022-12-18T14:12:34.177Z,6.93
2022-12-18T14:15:03.788Z,5.93
2022-12-18T14:17:34.272Z,6.03
2022-12-18T14:20:04.929Z,5.70
2022-12-18T14:22:35.435Z,6.57
2022-12-18T14:25:26.227Z,7.45
2022-12-18T14:28:04.429Z,5.90
2022-12-18T14:30:37.252Z,6.82
2022-12-18T14:33:08.333Z,7.27
2022-12-18T14:35:40.671Z,7.15
2022-12-18T14:38:25.944Z,7.40
2022-12-18T14:40:59.759Z,7.00
2022-12-18T14:43:30.481Z,6.53
2022-12-18T14:46:00.538Z,6.30
2022-12-18T14:48:39.310Z,7.03
2022-12-18T14:51:17.328Z,6.13
2022-12-18T14:53:54.404Z,6.55
2022-12-18T14:56:26.475Z,7.53
2022-12-18T14:58:58.120Z,7.03
2022-12-18T15:01:32.901Z,5.35
2022-12-18T15:04:03.523Z,5.93
2022-12-18T15:06:39.677Z,8.05
2022-12-18T15:09:25.974Z,7.47
2022-12-18T15:12:01.954Z,8.73
2022-12-18T15:14:42.788Z,7.72
2022-12-18T15:17:20.230Z,6.22
2022-12-18T15:19:51.142Z,7.57
2022-12-18T15:22:27.204Z,7.15
2022-12-18T15:24:59.061Z,7.43
2022-12-18T15:27:31.822Z,7.88
2022-12-18T15:30:20.354Z,7.20
2022-12-18T15:32:50.344Z,6.18
2022-12-18T15:35:22.499Z,7.83
2022-12-18T15:37:52.578Z,7.45
2022-12-18T15:40:25.228Z,7.13
2022-12-18T15:43:14.073Z,8.10
2022-12-18T15:45:42.941Z,5.07
2022-12-18T15:48:23.708Z,6.95
2022-12-18T15:50:56.682Z,9.20
2022-12-18T15:53:26.390Z,8.30
2022-12-18T15:56:14.512Z,7.10
2022-12-18T15:58:43.424Z,6.38
2022-12-18T16:01:13.174Z,4.60
2022-12-18T16:03:42.870Z,7.93
2022-12-18T16:06:13.421Z,7.90
2022-12-18T16:08:42.750Z,8.32
2022-12-18T16:11:38.893Z,8.02
2022-12-18T16:14:15.055Z,7.03
2022-12-18T16:16:45.443Z,8.07
2022-12-18T16:19:14.476Z,7.13
2022-12-18T16:21:44.833Z,6.93
2022-12-18T16:24:18.450Z,9.33
2022-12-18T16:26:50.005Z,7.47
2022-12-18T16:29:19.359Z,8.50
2022-12-18T16:31:48.801Z,7.57
2022-12-18T16:34:23.217Z,8.82
2022-12-18T16:37:00.308Z,8.60
2022-12-18T16:39:35.373Z,8.10
2022-12-18T16:42:11.309Z,8.75
2022-12-18T16:44:41.522Z,9.10
2022-12-18T16:47:13.279Z,9.52
2022-12-18T16:49:46.220Z,8.57
2022-12-18T16:52:15.573Z,10.27
2022-12-18T16:54:44.965Z,9.03
2022-12-18T16:57:25.165Z,9.00
2022-12-18T16:59:59.889Z,9.15
2022-12-18T17:02:32.494Z,8.75
2022-12-18T17:05:05.016Z,8.40
2022-12-18T17:07:33.835Z,9.98
2022-12-18T17:10:04.743Z,8.38
2022-12-18T17:12:37.385Z,9.45
2022-12-18T17:15:07.740Z,10.98
2022-12-18T17:17:37.128Z,7.25
2022-12-18T17:20:06.782Z,9.60
2022-12-18T17:22:35.479Z,6.57
2022-12-18T17:25:04.427Z,10.23
2022-12-18T17:27:35.235Z,10.82
2022-12-18T17:30:04.849Z,9.85
2022-12-18T17:32:33.711Z,9.27
2022-12-18T17:35:07.008Z,9.70
2022-12-18T17:37:36.468Z,9.40
2022-12-18T17:40:06.769Z,10.30
2022-12-18T17:42:37.116Z,10.25
2022-12-18T17:45:08.147Z,10.10
2022-12-18T17:47:37.599Z,8.88
2022-12-18T17:50:07.273Z,10.25
2022-12-18T17:52:36.592Z,10.00
2022-12-18T17:55:05.589Z,8.57
2022-12-18T17:57:38.103Z,11.07
2022-12-18T18:00:07.826Z,11.20
2022-12-18T18:02:37.321Z,11.30
2022-12-18T18:05:06.737Z,10.18
2022-12-18T18:07:36.729Z,10.25
2022-12-18T18:10:08.243Z,9.13
2022-12-18T18:12:55.872Z,9.05
2022-12-18T18:15:24.969Z,10.02
2022-12-18T18:17:53.693Z,11.23
2022-12-18T18:20:22.938Z,10.45
2022-12-18T18:22:52.378Z,10.80
2022-12-18T18:25:21.865Z,9.32
2022-12-18T18:27:52.415Z,8.35
2022-12-18T18:30:21.257Z,12.82
2022-12-18T18:32:50.436Z,11.18
2022-12-18T18:35:52.516Z,7.88
2022-12-18T18:38:10.785Z,10.30
2022-12-18T18:40:39.800Z,13.20
2022-12-18T18:43:11.330Z,9.70
2022-12-18T18:45:40.769Z,10.80
2022-12-18T18:48:11.453Z,8.50
2022-12-18T18:50:40.404Z,13.93
2022-12-18T18:53:09.162Z,9.50
2022-12-18T18:55:38.793Z,12.63
2022-12-18T18:58:09.143Z,11.60
2022-12-18T19:00:39.625Z,11.80
2022-12-18T19:03:11.119Z,12.00
2022-12-18T19:05:43.046Z,10.57
2022-12-18T19:08:14.984Z,12.45
2022-12-18T19:10:44.213Z,9.00
2022-12-18T19:13:24.924Z,12.45
2022-12-18T19:15:56.058Z,8.15
2022-12-18T19:18:26.054Z,12.85
2022-12-18T19:21:00.834Z,10.77
2022-12-18T19:23:32.040Z,12.43
2022-12-18T19:26:27.054Z,12.18
2022-12-18T19:28:53.025Z,8.77
2022-12-18T19:31:26.181Z,13.50
2022-12-18T19:33:57.520Z,12.98
2022-12-18T19:36:28.981Z,10.60
2022-12-18T19:39:00.811Z,9.70
2022-12-18T19:41:31.473Z,13.87
2022-12-18T19:44:07.574Z,12.90
2022-12-18T19:46:41.679Z,10.93
2022-12-18T19:49:11.988Z,10.85
2022-12-18T19:51:50.737Z,12.85
2022-12-18T19:54:21.403Z,11.73
2022-12-18T19:56:53.025Z,11.50
2022-12-18T19:59:26.687Z,11.75
2022-12-18T20:01:56.719Z,11.98
2022-12-18T20:04:25.952Z,14.40
2022-12-18T20:06:55.755Z,11.55
2022-12-18T20:09:24.927Z,8.88
2022-12-18T20:11:55.952Z,11.33
2022-12-18T20:14:26.674Z,13.40
2022-12-18T20:17:00.422Z,13.40
2022-12-18T20:21:55.689Z,11.87
2022-12-18T20:24:24.208Z,12.02
2022-12-18T20:26:52.886Z,10.70
2022-12-18T20:29:21.411Z,11.85
2022-12-18T20:31:51.360Z,14.07
2022-12-18T20:34:19.955Z,11.18
2022-12-18T20:36:49.069Z,12.00
2022-12-18T20:39:18.503Z,11.40
2022-12-18T20:41:47.789Z,9.27
2022-12-18T20:44:23.193Z,11.52
2022-12-18T20:46:56.389Z,12.60
2022-12-18T20:49:25.715Z,13.10
2022-12-18T20:51:56.395Z,10.05
2022-12-18T20:54:27.206Z,11.67
2022-12-18T20:56:55.913Z,8.75
2022-12-18T20:59:25.570Z,11.63
2022-12-18T21:01:55.754Z,11.05
2022-12-18T21:04:25.085Z,14.50
2022-12-18T21:06:57.945Z,13.50
2022-12-18T21:09:30.376Z,10.20
2022-12-18T21:12:25.803Z,9.80
2022-12-18T21:14:54.480Z,11.13
2022-12-18T21:17:24.432Z,13.55
2022-12-18T21:19:55.482Z,12.00
2022-12-18T21:22:24.034Z,11.60
2022-12-18T21:24:52.830Z,10.23
2022-12-18T21:27:21.402Z,11.38
2022-12-18T21:29:49.940Z,10.60
2022-12-18T21:32:20.319Z,13.57
2022-12-18T21:34:51.975Z,12.23
2022-12-18T21:37:20.533Z,10.73
2022-12-18T21:39:49.088Z,13.17
2022-12-18T21:42:35.313Z,10.65
2022-12-18T21:45:03.882Z,12.95
2022-12-18T21:47:32.458Z,11.37
2022-12-18T21:50:02.466Z,7.10
2022-12-18T21:52:32.549Z,14.20
2022-12-18T21:55:08.601Z,9.32
2022-12-18T21:57:39.638Z,11.05
2022-12-18T22:00:12.515Z,11.50
2022-12-18T22:02:48.864Z,11.95
2022-12-18T22:05:38.379Z,12.60
2022-12-18T22:08:07.753Z,10.02
2022-12-18T22:10:36.841Z,12.55
2022-12-18T22:13:05.663Z,10.52
2022-12-18T22:15:34.558Z,12.93
2022-12-18T22:18:03.168Z,12.50
2022-12-18T22:20:31.726Z,13.15
2022-12-18T22:23:05.967Z,12.13
2022-12-18T22:25:35.232Z,10.40
2022-12-18T22:28:23.593Z,10.00
2022-12-18T22:30:53.385Z,12.80
2022-12-18T22:33:28.678Z,12.25
2022-12-18T22:35:57.191Z,11.10
2022-12-18T22:38:27.116Z,10.05
2022-12-18T22:40:56.563Z,11.20
2022-12-18T22:43:25.164Z,13.20
2022-12-18T22:45:53.696Z,11.07
2022-12-18T22:48:22.605Z,11.52
2022-12-18T22:50:51.150Z,10.10
2022-12-18T22:53:25.850Z,11.77
2022-12-18T22:56:00.952Z,11.32
2022-12-18T22:58:29.467Z,9.55
2022-12-18T23:00:57.955Z,11.65
2022-12-18T23:03:26.630Z,9.30
2022-12-18T23:06:02.627Z,12.48
2022-12-18T23:08:32.951Z,11.20
2022-12-18T23:11:01.461Z,9.07
2022-12-18T23:13:30.321Z,12.77
2022-12-18T23:15:58.852Z,10.80
2022-12-18T23:18:27.665Z,11.80
2022-12-18T23:20:56.178Z,9.77
2022-12-18T23:23:24.685Z,12.80
2022-12-18T23:26:02.449Z,11.07
2022-12-18T23:28:32.120Z,11.95
2022-12-18T23:31:06.562Z,12.50
2022-12-18T23:33:35.411Z,10.60
2022-12-18T23:36:05.144Z,16.00
2022-12-18T23:38:34.687Z,12.50
2022-12-18T23:41:09.016Z,12.68
2022-12-18T23:43:37.806Z,11.27
2022-12-18T23:46:13.198Z,8.63
2022-12-18T23:48:42.016Z,10.77
2022-12-18T23:51:12.039Z,14.40
2022-12-18T23:53:40.895Z,10.23
2022-12-18T23:56:12.041Z,13.47
2022-12-18T23:58:40.813Z,10.00
